PWSweather.com
Personal Weather Stations
Station Observations
ILAZIOPO4
Tetto, PomeziaIT 00040

TettoPomeziaIT 00040

Lat: 41.6674809, Lon: 12.5080234

Elevation: 85

Station Type: Davis Vantage Pro2 Plus

http://pomeziameteo.it

Latest ConditionsUpdated 7:15:05 PM GMT+01:01 Sunday, May 26, 2019
Currently Today's Max Today's Min Today's Average
Temperature 58.6°F14.8°C 64.7°F18.2°C 58.0°F14.4°C 60.6°F15.9°C
Dew Point 55.9°F13.3°C 59.3°F15.2°C 54.7°F12.6°C 57.0°F13.9°C
Winds 1.0 mph N1.6 kmh N 14.0 mph -22.5 kmh - - 2.1 mph 3.4 kmh
Wind Gusts 10.0 mph16.1 kmh 19.0 mph30.6 kmh - -
Humidity 91% 93% 75% 88%
Pressure 29.71 in1006.1 mb 29.91 in1012.9 mb 29.71 in1006.1 mb -
Precipitation - 0.34 in8.6 mm - -
Hour Temp Dew Point Humidity Winds Wind Gusts Pressure Precip Precip Rate Daily Precip Total
07:15 PM 58.6°F14.8°C 55.9°F13.3°C 91% 1.0 mph N1.6 kmh N 10.0 mph16.1 kmh 29.71 in1006.1 mb 0.02 in0.5 mm 0.00 in0.0 mm 0.34 in8.6 mm
07:10 PM 58.7°F14.8°C 55.7°F13.2°C 90% 1.0 mph NW1.6 kmh NW 12.0 mph19.3 kmh 29.71 in1006.1 mb 0.02 in0.5 mm 0.00 in0.0 mm 0.33 in8.4 mm
07:05 PM 58.8°F14.9°C 56.1°F13.4°C 91% Calm Calm 14.0 mph22.5 kmh 29.71 in1006.1 mb 0.02 in0.5 mm 0.00 in0.0 mm 0.32 in8.1 mm
07:00 PM 58.9°F14.9°C 56.2°F13.4°C 91% 4.0 mph NW6.4 kmh NW 11.0 mph17.7 kmh 29.72 in1006.4 mb 0.03 in0.8 mm 0.00 in0.0 mm 0.32 in8.1 mm
06:55 PM 58.9°F14.9°C 56.2°F13.4°C 91% Calm Calm 11.0 mph17.7 kmh 29.72 in1006.4 mb 0.04 in1.0 mm 0.00 in0.0 mm 0.32 in8.1 mm
06:50 PM 58.8°F14.9°C 55.8°F13.2°C 90% 8.0 mph NW12.9 kmh NW 10.0 mph16.1 kmh 29.72 in1006.4 mb 0.05 in1.3 mm 0.00 in0.0 mm 0.32 in8.1 mm
06:45 PM 58.7°F14.8°C 55.7°F13.2°C 90% 4.0 mph NW6.4 kmh NW 9.0 mph14.5 kmh 29.72 in1006.4 mb 0.05 in1.3 mm 0.00 in0.0 mm 0.32 in8.1 mm
06:40 PM 58.6°F14.8°C 55.6°F13.1°C 90% Calm Calm 8.0 mph12.9 kmh 29.72 in1006.4 mb 0.05 in1.3 mm 0.00 in0.0 mm 0.32 in8.1 mm
06:35 PM 58.5°F14.7°C 55.5°F13.1°C 90% 8.0 mph NW12.9 kmh NW 10.0 mph16.1 kmh 29.72 in1006.4 mb 0.05 in1.3 mm 0.00 in0.0 mm 0.32 in8.1 mm
06:30 PM 58.4°F14.7°C 55.1°F12.8°C 89% Calm Calm 8.0 mph12.9 kmh 29.72 in1006.4 mb 0.05 in1.3 mm 0.00 in0.0 mm 0.32 in8.1 mm
06:25 PM 58.4°F14.7°C 55.1°F12.8°C 89% Calm Calm 10.0 mph16.1 kmh 29.72 in1006.4 mb 0.06 in1.5 mm 0.00 in0.0 mm 0.32 in8.1 mm
06:20 PM 58.3°F14.6°C 54.7°F12.6°C 88% 5.0 mph NW8.0 kmh NW 8.0 mph12.9 kmh 29.72 in1006.4 mb 0.06 in1.5 mm 0.00 in0.0 mm 0.32 in8.1 mm
06:15 PM 58.3°F14.6°C 54.7°F12.6°C 88% Calm Calm -- 29.73 in1006.8 mb 0.06 in1.5 mm 0.00 in0.0 mm 0.31 in7.9 mm
06:10 PM 58.5°F14.7°C 54.9°F12.7°C 88% Calm Calm -- 29.74 in1007.1 mb 0.06 in1.5 mm 0.00 in0.0 mm 0.31 in7.9 mm
06:05 PM 58.6°F14.8°C 54.7°F12.6°C 87% Calm Calm 1.0 mph1.6 kmh 29.74 in1007.1 mb 0.06 in1.5 mm 0.12 in3.0 mm 0.31 in7.9 mm
06:00 PM 58.7°F14.8°C 54.8°F12.7°C 87% Calm Calm 3.0 mph4.8 kmh 29.74 in1007.1 mb 0.05 in1.3 mm 0.01 in0.3 mm 0.29 in7.4 mm
05:55 PM 58.7°F14.8°C 54.8°F12.7°C 87% Calm Calm 5.0 mph8.0 kmh 29.75 in1007.5 mb 0.04 in1.0 mm 0.12 in3.0 mm 0.28 in7.1 mm
05:50 PM 58.8°F14.9°C 54.9°F12.7°C 87% 5.0 mph E8.0 kmh E 9.0 mph14.5 kmh 29.75 in1007.5 mb 0.03 in0.8 mm 0.00 in0.0 mm 0.28 in7.1 mm
05:45 PM 58.8°F14.9°C 54.9°F12.7°C 87% Calm Calm 8.0 mph12.9 kmh 29.75 in1007.5 mb 0.03 in0.8 mm 0.00 in0.0 mm 0.28 in7.1 mm
05:40 PM 58.7°F14.8°C 54.8°F12.7°C 87% Calm Calm 4.0 mph6.4 kmh 29.75 in1007.5 mb 0.03 in0.8 mm 0.00 in0.0 mm 0.28 in7.1 mm
05:35 PM 58.9°F14.9°C 55.0°F12.8°C 87% Calm Calm 5.0 mph8.0 kmh 29.75 in1007.5 mb 0.04 in1.0 mm 0.00 in0.0 mm 0.28 in7.1 mm
05:30 PM 59.0°F15.0°C 55.1°F12.8°C 87% Calm Calm 1.0 mph1.6 kmh 29.76 in1007.8 mb 0.04 in1.0 mm 0.12 in3.0 mm 0.28 in7.1 mm
05:25 PM 59.1°F15.1°C 55.2°F12.9°C 87% Calm Calm 1.0 mph1.6 kmh 29.76 in1007.8 mb 0.03 in0.8 mm 0.00 in0.0 mm 0.27 in6.9 mm
05:20 PM 59.3°F15.2°C 55.4°F13.0°C 87% Calm Calm 5.0 mph8.0 kmh 29.76 in1007.8 mb 0.04 in1.0 mm 0.12 in3.0 mm 0.27 in6.9 mm
05:15 PM 59.3°F15.2°C 55.4°F13.0°C 87% Calm Calm 1.0 mph1.6 kmh 29.76 in1007.8 mb 0.03 in0.8 mm 0.00 in0.0 mm 0.26 in6.6 mm
05:10 PM 59.4°F15.2°C 55.5°F13.1°C 87% Calm Calm 3.0 mph4.8 kmh 29.76 in1007.8 mb 0.03 in0.8 mm 0.00 in0.0 mm 0.25 in6.4 mm
05:05 PM 59.4°F15.2°C 55.5°F13.1°C 87% Calm Calm 1.0 mph1.6 kmh 29.76 in1007.8 mb 0.04 in1.0 mm 0.00 in0.0 mm 0.25 in6.4 mm
05:00 PM 59.5°F15.3°C 55.6°F13.1°C 87% Calm Calm 3.0 mph4.8 kmh 29.77 in1008.1 mb 0.04 in1.0 mm 0.00 in0.0 mm 0.24 in6.1 mm
04:55 PM 59.6°F15.3°C 55.7°F13.2°C 87% Calm Calm 4.0 mph6.4 kmh 29.76 in1007.8 mb 0.04 in1.0 mm 0.00 in0.0 mm 0.24 in6.1 mm
04:50 PM 59.5°F15.3°C 55.6°F13.1°C 87% Calm Calm 6.0 mph9.7 kmh 29.77 in1008.1 mb 0.05 in1.3 mm 0.00 in0.0 mm 0.24 in6.1 mm
04:45 PM 59.6°F15.3°C 55.7°F13.2°C 87% 5.0 mph NE8.0 kmh NE 4.0 mph6.4 kmh 29.77 in1008.1 mb 0.06 in1.5 mm 0.00 in0.0 mm 0.24 in6.1 mm
04:40 PM 59.5°F15.3°C 55.6°F13.1°C 87% Calm Calm 4.0 mph6.4 kmh 29.77 in1008.1 mb 0.06 in1.5 mm 0.12 in3.0 mm 0.24 in6.1 mm
04:35 PM 59.7°F15.4°C 55.8°F13.2°C 87% Calm Calm 2.0 mph3.2 kmh 29.78 in1008.5 mb 0.05 in1.3 mm 0.00 in0.0 mm 0.24 in6.1 mm
04:30 PM 59.8°F15.4°C 55.9°F13.3°C 87% Calm Calm -- 29.78 in1008.5 mb 0.05 in1.3 mm 0.00 in0.0 mm 0.24 in6.1 mm
04:25 PM 60.0°F15.6°C 55.7°F13.2°C 86% Calm Calm 9.0 mph14.5 kmh 29.78 in1008.5 mb 0.05 in1.3 mm 0.12 in3.0 mm 0.24 in6.1 mm
04:20 PM 60.2°F15.7°C 55.9°F13.3°C 86% 3.0 mph SW4.8 kmh SW 9.0 mph14.5 kmh 29.78 in1008.5 mb 0.04 in1.0 mm 0.00 in0.0 mm 0.23 in5.8 mm
04:15 PM 60.4°F15.8°C 56.1°F13.4°C 86% 4.0 mph ESE6.4 kmh ESE 11.0 mph17.7 kmh 29.78 in1008.5 mb 0.04 in1.0 mm 0.12 in3.0 mm 0.23 in5.8 mm
04:10 PM 60.7°F15.9°C 56.1°F13.4°C 85% Calm Calm 11.0 mph17.7 kmh 29.78 in1008.5 mb 0.03 in0.8 mm 0.12 in3.0 mm 0.22 in5.6 mm
04:05 PM 60.9°F16.1°C 56.3°F13.5°C 85% Calm Calm 11.0 mph17.7 kmh 29.78 in1008.5 mb 0.02 in0.5 mm 0.00 in0.0 mm 0.21 in5.3 mm
04:00 PM 61.2°F16.2°C 55.9°F13.3°C 83% Calm Calm 13.0 mph20.9 kmh 29.79 in1008.8 mb 0.02 in0.5 mm 0.00 in0.0 mm 0.20 in5.1 mm
03:55 PM 61.8°F16.6°C 55.9°F13.3°C 81% 12.0 mph SSE19.3 kmh SSE 19.0 mph30.6 kmh 29.79 in1008.8 mb 0.02 in0.5 mm 0.12 in3.0 mm 0.20 in5.1 mm
03:50 PM 62.8°F17.1°C 56.5°F13.6°C 80% 12.0 mph SSE19.3 kmh SSE 19.0 mph30.6 kmh 29.79 in1008.8 mb 0.01 in0.3 mm 0.12 in3.0 mm 0.20 in5.1 mm
03:45 PM 63.8°F17.7°C 57.1°F13.9°C 79% 5.0 mph SSE8.0 kmh SSE 14.0 mph22.5 kmh 29.78 in1008.5 mb 0.00 in0.0 mm 0.00 in0.0 mm 0.19 in4.8 mm
03:40 PM 64.2°F17.9°C 56.8°F13.8°C 77% Calm Calm 8.0 mph12.9 kmh 29.78 in1008.5 mb 0.00 in0.0 mm 0.00 in0.0 mm 0.19 in4.8 mm
03:35 PM 64.3°F17.9°C 56.1°F13.4°C 75% 4.0 mph SE6.4 kmh SE 11.0 mph17.7 kmh 29.78 in1008.5 mb 0.00 in0.0 mm 0.00 in0.0 mm 0.19 in4.8 mm
03:30 PM 64.4°F18.0°C 56.2°F13.4°C 75% 8.0 mph SE12.9 kmh SE 10.0 mph16.1 kmh 29.78 in1008.5 mb 0.00 in0.0 mm 0.00 in0.0 mm 0.19 in4.8 mm
03:25 PM 64.2°F17.9°C 56.1°F13.4°C 75% 10.0 mph E16.1 kmh E 14.0 mph22.5 kmh 29.78 in1008.5 mb 0.00 in0.0 mm 0.00 in0.0 mm 0.19 in4.8 mm
03:20 PM 64.1°F17.8°C 56.3°F13.5°C 76% Calm Calm 6.0 mph9.7 kmh 29.78 in1008.5 mb 0.00 in0.0 mm 0.00 in0.0 mm 0.19 in4.8 mm
03:15 PM 64.0°F17.8°C 56.2°F13.4°C 76% 3.0 mph ENE4.8 kmh ENE 8.0 mph12.9 kmh 29.77 in1008.1 mb 0.00 in0.0 mm 0.00 in0.0 mm 0.19 in4.8 mm
03:10 PM 63.9°F17.7°C 56.5°F13.6°C 77% 1.0 mph ESE1.6 kmh ESE 12.0 mph19.3 kmh 29.77 in1008.1 mb 0.00 in0.0 mm 0.00 in0.0 mm 0.19 in4.8 mm
03:05 PM 63.8°F17.7°C 56.8°F13.8°C 78% 2.0 mph SE3.2 kmh SE 4.0 mph6.4 kmh 29.77 in1008.1 mb 0.00 in0.0 mm 0.00 in0.0 mm 0.19 in4.8 mm
03:00 PM 63.7°F17.6°C 56.7°F13.7°C 78% Calm Calm -- 29.77 in1008.1 mb 0.00 in0.0 mm 0.00 in0.0 mm 0.19 in4.8 mm
02:55 PM 63.5°F17.5°C 56.8°F13.8°C 79% Calm Calm 8.0 mph12.9 kmh 29.77 in1008.1 mb 0.00 in0.0 mm 0.00 in0.0 mm 0.19 in4.8 mm
02:50 PM 63.3°F17.4°C 57.0°F13.9°C 80% 5.0 mph ENE8.0 kmh ENE 7.0 mph11.3 kmh 29.77 in1008.1 mb 0.00 in0.0 mm 0.00 in0.0 mm 0.19 in4.8 mm
02:45 PM 63.4°F17.4°C 57.4°F14.1°C 81% Calm Calm 1.0 mph1.6 kmh 29.77 in1008.1 mb 0.00 in0.0 mm 0.00 in0.0 mm 0.19 in4.8 mm
02:40 PM 63.3°F17.4°C 57.3°F14.1°C 81% Calm Calm 9.0 mph14.5 kmh 29.78 in1008.5 mb 0.00 in0.0 mm 0.00 in0.0 mm 0.19 in4.8 mm
02:35 PM 63.3°F17.4°C 57.3°F14.1°C 81% Calm Calm 8.0 mph12.9 kmh 29.78 in1008.5 mb 0.00 in0.0 mm 0.00 in0.0 mm 0.19 in4.8 mm
02:30 PM 63.2°F17.3°C 57.2°F14.0°C 81% 3.0 mph ESE4.8 kmh ESE 10.0 mph16.1 kmh 29.78 in1008.5 mb 0.00 in0.0 mm 0.00 in0.0 mm 0.19 in4.8 mm
02:25 PM 63.3°F17.4°C 57.3°F14.1°C 81% 6.0 mph E9.7 kmh E 9.0 mph14.5 kmh 29.78 in1008.5 mb 0.00 in0.0 mm 0.00 in0.0 mm 0.19 in4.8 mm
02:20 PM 63.4°F17.4°C 57.4°F14.1°C 81% 6.0 mph E9.7 kmh E 8.0 mph12.9 kmh 29.78 in1008.5 mb 0.00 in0.0 mm 0.00 in0.0 mm 0.19 in4.8 mm
02:15 PM 63.3°F17.4°C 57.3°F14.1°C 81% 7.0 mph ESE11.3 kmh ESE 14.0 mph22.5 kmh 29.78 in1008.5 mb 0.00 in0.0 mm 0.00 in0.0 mm 0.19 in4.8 mm
02:10 PM 63.3°F17.4°C 57.3°F14.1°C 81% 5.0 mph SE8.0 kmh SE 13.0 mph20.9 kmh 29.78 in1008.5 mb 0.00 in0.0 mm 0.00 in0.0 mm 0.19 in4.8 mm
02:05 PM 63.2°F17.3°C 56.9°F13.8°C 80% 9.0 mph ESE14.5 kmh ESE 14.0 mph22.5 kmh 29.78 in1008.5 mb 0.00 in0.0 mm 0.00 in0.0 mm 0.19 in4.8 mm
02:00 PM 63.1°F17.3°C 57.1°F13.9°C 81% 7.0 mph SE11.3 kmh SE 13.0 mph20.9 kmh 29.78 in1008.5 mb 0.00 in0.0 mm 0.00 in0.0 mm 0.19 in4.8 mm
01:55 PM 63.1°F17.3°C 57.1°F13.9°C 81% 1.0 mph SE1.6 kmh SE 18.0 mph29.0 kmh 29.78 in1008.5 mb 0.00 in0.0 mm 0.00 in0.0 mm 0.19 in4.8 mm
01:50 PM 63.1°F17.3°C 57.1°F13.9°C 81% 11.0 mph SE17.7 kmh SE 16.0 mph25.7 kmh 29.78 in1008.5 mb 0.00 in0.0 mm 0.00 in0.0 mm 0.19 in4.8 mm
01:45 PM 63.1°F17.3°C 57.1°F13.9°C 81% 10.0 mph SE16.1 kmh SE 12.0 mph19.3 kmh 29.78 in1008.5 mb 0.00 in0.0 mm 0.00 in0.0 mm 0.19 in4.8 mm
01:40 PM 63.0°F17.2°C 57.4°F14.1°C 82% 9.0 mph ESE14.5 kmh ESE 16.0 mph25.7 kmh 29.78 in1008.5 mb 0.00 in0.0 mm 0.00 in0.0 mm 0.19 in4.8 mm
01:35 PM 62.8°F17.1°C 57.5°F14.2°C 83% 4.0 mph ESE6.4 kmh ESE 17.0 mph27.4 kmh 29.78 in1008.5 mb 0.00 in0.0 mm 0.00 in0.0 mm 0.19 in4.8 mm
01:30 PM 62.7°F17.1°C 57.7°F14.3°C 84% 8.0 mph E12.9 kmh E 15.0 mph24.1 kmh 29.79 in1008.8 mb 0.00 in0.0 mm 0.00 in0.0 mm 0.19 in4.8 mm
01:25 PM 62.5°F16.9°C 57.9°F14.4°C 85% 11.0 mph SE17.7 kmh SE 18.0 mph29.0 kmh 29.79 in1008.8 mb 0.00 in0.0 mm 0.00 in0.0 mm 0.19 in4.8 mm
01:20 PM 62.3°F16.8°C 58.0°F14.4°C 86% 9.0 mph SE14.5 kmh SE 12.0 mph19.3 kmh 29.79 in1008.8 mb 0.00 in0.0 mm 0.00 in0.0 mm 0.19 in4.8 mm
01:15 PM 62.0°F16.7°C 58.0°F14.4°C 87% 5.0 mph SE8.0 kmh SE 16.0 mph25.7 kmh 29.80 in1009.1 mb 0.01 in0.3 mm 0.00 in0.0 mm 0.19 in4.8 mm
01:10 PM 61.7°F16.5°C 58.1°F14.5°C 88% 9.0 mph SE14.5 kmh SE 16.0 mph25.7 kmh 29.80 in1009.1 mb 0.01 in0.3 mm 0.00 in0.0 mm 0.19 in4.8 mm
01:05 PM 61.8°F16.6°C 58.8°F14.9°C 90% 3.0 mph SE4.8 kmh SE 13.0 mph20.9 kmh 29.80 in1009.1 mb 0.02 in0.5 mm 0.00 in0.0 mm 0.19 in4.8 mm
01:00 PM 61.6°F16.4°C 58.9°F14.9°C 91% 6.0 mph ESE9.7 kmh ESE 12.0 mph19.3 kmh 29.80 in1009.1 mb 0.02 in0.5 mm 0.00 in0.0 mm 0.19 in4.8 mm
12:55 PM 61.3°F16.3°C 58.6°F14.8°C 91% 4.0 mph SE6.4 kmh SE 15.0 mph24.1 kmh 29.80 in1009.1 mb 0.02 in0.5 mm 0.00 in0.0 mm 0.19 in4.8 mm
12:50 PM 61.1°F16.2°C 58.4°F14.7°C 91% 11.0 mph SE17.7 kmh SE 16.0 mph25.7 kmh 29.81 in1009.5 mb 0.02 in0.5 mm 0.00 in0.0 mm 0.19 in4.8 mm
12:45 PM 61.1°F16.2°C 58.7°F14.8°C 92% 7.0 mph E11.3 kmh E 11.0 mph17.7 kmh 29.81 in1009.5 mb 0.02 in0.5 mm 0.00 in0.0 mm 0.19 in4.8 mm
12:40 PM 60.9°F16.1°C 58.5°F14.7°C 92% 10.0 mph ESE16.1 kmh ESE 14.0 mph22.5 kmh 29.81 in1009.5 mb 0.03 in0.8 mm 0.00 in0.0 mm 0.19 in4.8 mm
12:35 PM 60.7°F15.9°C 58.3°F14.6°C 92% 11.0 mph SSE17.7 kmh SSE 15.0 mph24.1 kmh 29.81 in1009.5 mb 0.03 in0.8 mm 0.00 in0.0 mm 0.19 in4.8 mm
12:30 PM 60.8°F16.0°C 58.4°F14.7°C 92% 14.0 mph SE22.5 kmh SE 15.0 mph24.1 kmh 29.81 in1009.5 mb 0.04 in1.0 mm 0.00 in0.0 mm 0.19 in4.8 mm
12:25 PM 60.8°F16.0°C 58.4°F14.7°C 92% Calm Calm 13.0 mph20.9 kmh 29.81 in1009.5 mb 0.05 in1.3 mm 0.00 in0.0 mm 0.19 in4.8 mm
12:20 PM 61.0°F16.1°C 58.6°F14.8°C 92% 4.0 mph ESE6.4 kmh ESE 11.0 mph17.7 kmh 29.81 in1009.5 mb 0.05 in1.3 mm 0.00 in0.0 mm 0.19 in4.8 mm
12:15 PM 61.2°F16.2°C 58.8°F14.9°C 92% 7.0 mph ESE11.3 kmh ESE 11.0 mph17.7 kmh 29.82 in1009.8 mb 0.05 in1.3 mm 0.00 in0.0 mm 0.18 in4.6 mm
12:10 PM 61.2°F16.2°C 58.8°F14.9°C 92% 4.0 mph SE6.4 kmh SE 11.0 mph17.7 kmh 29.82 in1009.8 mb 0.06 in1.5 mm 0.00 in0.0 mm 0.18 in4.6 mm
12:05 PM 61.3°F16.3°C 58.9°F14.9°C 92% 8.0 mph ESE12.9 kmh ESE 11.0 mph17.7 kmh 29.83 in1010.2 mb 0.06 in1.5 mm 0.00 in0.0 mm 0.17 in4.3 mm
12:00 PM 61.6°F16.4°C 59.2°F15.1°C 92% 10.0 mph ESE16.1 kmh ESE 10.0 mph16.1 kmh 29.83 in1010.2 mb 0.06 in1.5 mm 0.00 in0.0 mm 0.17 in4.3 mm
11:55 AM 61.6°F16.4°C 58.9°F14.9°C 91% 4.0 mph SSE6.4 kmh SSE 9.0 mph14.5 kmh 29.82 in1009.8 mb 0.07 in1.8 mm 0.00 in0.0 mm 0.17 in4.3 mm
11:50 AM 61.5°F16.4°C 58.8°F14.9°C 91% 1.0 mph SSE1.6 kmh SSE 10.0 mph16.1 kmh 29.83 in1010.2 mb 0.07 in1.8 mm 0.00 in0.0 mm 0.17 in4.3 mm
11:45 AM 61.6°F16.4°C 58.9°F14.9°C 91% 5.0 mph SE8.0 kmh SE 5.0 mph8.0 kmh 29.83 in1010.2 mb 0.09 in2.3 mm 0.00 in0.0 mm 0.17 in4.3 mm
11:40 AM 61.6°F16.4°C 58.6°F14.8°C 90% Calm Calm -- 29.83 in1010.2 mb 0.09 in2.3 mm 0.00 in0.0 mm 0.16 in4.1 mm
11:35 AM 61.6°F16.4°C 58.6°F14.8°C 90% Calm Calm -- 29.83 in1010.2 mb 0.09 in2.3 mm 0.12 in3.0 mm 0.16 in4.1 mm
11:30 AM 61.8°F16.6°C 58.8°F14.9°C 90% Calm Calm 3.0 mph4.8 kmh 29.83 in1010.2 mb 0.08 in2.0 mm 0.12 in3.0 mm 0.15 in3.8 mm
11:25 AM 61.8°F16.6°C 58.5°F14.7°C 89% 2.0 mph SSE3.2 kmh SSE 3.0 mph4.8 kmh 29.83 in1010.2 mb 0.07 in1.8 mm 0.00 in0.0 mm 0.14 in3.6 mm
11:20 AM 61.8°F16.6°C 58.2°F14.6°C 88% 2.0 mph SSE3.2 kmh SSE 3.0 mph4.8 kmh 29.83 in1010.2 mb 0.07 in1.8 mm 0.12 in3.0 mm 0.14 in3.6 mm
11:15 AM 61.9°F16.6°C 57.9°F14.4°C 87% Calm Calm 3.0 mph4.8 kmh 29.83 in1010.2 mb 0.06 in1.5 mm 0.00 in0.0 mm 0.13 in3.3 mm
11:10 AM 62.1°F16.7°C 58.1°F14.5°C 87% Calm Calm 9.0 mph14.5 kmh 29.84 in1010.5 mb 0.06 in1.5 mm 0.12 in3.0 mm 0.13 in3.3 mm
11:05 AM 62.3°F16.8°C 57.7°F14.3°C 85% 9.0 mph SSE14.5 kmh SSE 9.0 mph14.5 kmh 29.84 in1010.5 mb 0.05 in1.3 mm 0.12 in3.0 mm 0.12 in3.0 mm
11:00 AM 62.7°F17.1°C 57.7°F14.3°C 84% Calm Calm 5.0 mph8.0 kmh 29.84 in1010.5 mb 0.04 in1.0 mm 0.01 in0.3 mm 0.11 in2.8 mm
10:55 AM 63.1°F17.3°C 58.1°F14.5°C 84% Calm Calm 8.0 mph12.9 kmh 29.83 in1010.2 mb 0.03 in0.8 mm 0.12 in3.0 mm 0.10 in2.5 mm
10:50 AM 63.4°F17.4°C 58.1°F14.5°C 83% 6.0 mph SE9.7 kmh SE 7.0 mph11.3 kmh 29.83 in1010.2 mb 0.02 in0.5 mm 0.12 in3.0 mm 0.09 in2.3 mm
10:45 AM 64.1°F17.8°C 58.8°F14.9°C 83% Calm Calm -- 29.83 in1010.2 mb 0.01 in0.3 mm 0.12 in3.0 mm 0.08 in2.0 mm
10:40 AM 64.4°F18.0°C 58.7°F14.8°C 82% Calm Calm 4.0 mph6.4 kmh 29.83 in1010.2 mb 0.00 in0.0 mm 0.00 in0.0 mm 0.07 in1.8 mm
10:35 AM 64.7°F18.2°C 58.7°F14.8°C 81% 2.0 mph ESE3.2 kmh ESE 3.0 mph4.8 kmh 29.83 in1010.2 mb 0.00 in0.0 mm 0.00 in0.0 mm 0.07 in1.8 mm
10:30 AM 64.7°F18.2°C 58.3°F14.6°C 80% 1.0 mph E1.6 kmh E 2.0 mph3.2 kmh 29.82 in1009.8 mb 0.00 in0.0 mm 0.00 in0.0 mm 0.07 in1.8 mm
10:25 AM 64.6°F18.1°C 58.2°F14.6°C 80% 2.0 mph E3.2 kmh E 3.0 mph4.8 kmh 29.82 in1009.8 mb 0.00 in0.0 mm 0.00 in0.0 mm 0.07 in1.8 mm
10:20 AM 64.5°F18.1°C 58.1°F14.5°C 80% 3.0 mph E4.8 kmh E 4.0 mph6.4 kmh 29.82 in1009.8 mb 0.00 in0.0 mm 0.00 in0.0 mm 0.07 in1.8 mm
10:15 AM 64.4°F18.0°C 58.0°F14.4°C 80% 3.0 mph E4.8 kmh E 5.0 mph8.0 kmh 29.82 in1009.8 mb 0.00 in0.0 mm 0.00 in0.0 mm 0.07 in1.8 mm
10:10 AM 64.4°F18.0°C 58.0°F14.4°C 80% 3.0 mph E4.8 kmh E 6.0 mph9.7 kmh 29.82 in1009.8 mb 0.00 in0.0 mm 0.00 in0.0 mm 0.07 in1.8 mm
10:05 AM 64.4°F18.0°C 58.4°F14.7°C 81% 3.0 mph NE4.8 kmh NE 6.0 mph9.7 kmh 29.82 in1009.8 mb 0.00 in0.0 mm 0.00 in0.0 mm 0.07 in1.8 mm
10:00 AM 64.3°F17.9°C 58.3°F14.6°C 81% 4.0 mph NE6.4 kmh NE 5.0 mph8.0 kmh 29.81 in1009.5 mb 0.00 in0.0 mm 0.00 in0.0 mm 0.07 in1.8 mm
09:55 AM 64.1°F17.8°C 58.8°F14.9°C 83% 2.0 mph SE3.2 kmh SE 6.0 mph9.7 kmh 29.81 in1009.5 mb 0.01 in0.3 mm 0.00 in0.0 mm 0.07 in1.8 mm
09:50 AM 63.8°F17.7°C 58.5°F14.7°C 83% 4.0 mph NE6.4 kmh NE 4.0 mph6.4 kmh 29.81 in1009.5 mb 0.01 in0.3 mm 0.00 in0.0 mm 0.07 in1.8 mm
09:45 AM 63.5°F17.5°C 58.2°F14.6°C 83% Calm Calm 6.0 mph9.7 kmh 29.82 in1009.8 mb 0.01 in0.3 mm 0.00 in0.0 mm 0.07 in1.8 mm
09:40 AM 63.5°F17.5°C 58.2°F14.6°C 83% 4.0 mph SE6.4 kmh SE 6.0 mph9.7 kmh 29.82 in1009.8 mb 0.01 in0.3 mm 0.00 in0.0 mm 0.07 in1.8 mm
09:35 AM 63.4°F17.4°C 58.4°F14.7°C 84% 4.0 mph E6.4 kmh E 6.0 mph9.7 kmh 29.82 in1009.8 mb 0.01 in0.3 mm 0.00 in0.0 mm 0.07 in1.8 mm
09:30 AM 63.3°F17.4°C 58.3°F14.6°C 84% 3.0 mph SE4.8 kmh SE 7.0 mph11.3 kmh 29.82 in1009.8 mb 0.01 in0.3 mm 0.00 in0.0 mm 0.07 in1.8 mm
09:25 AM 63.3°F17.4°C 58.7°F14.8°C 85% 6.0 mph ESE9.7 kmh ESE 8.0 mph12.9 kmh 29.81 in1009.5 mb 0.01 in0.3 mm 0.00 in0.0 mm 0.07 in1.8 mm
09:20 AM 63.2°F17.3°C 58.9°F14.9°C 86% 8.0 mph E12.9 kmh E 8.0 mph12.9 kmh 29.81 in1009.5 mb 0.01 in0.3 mm 0.00 in0.0 mm 0.07 in1.8 mm
09:15 AM 63.2°F17.3°C 59.2°F15.1°C 87% 8.0 mph ESE12.9 kmh ESE 9.0 mph14.5 kmh 29.81 in1009.5 mb 0.01 in0.3 mm 0.00 in0.0 mm 0.07 in1.8 mm
09:10 AM 63.0°F17.2°C 59.0°F15.0°C 87% 7.0 mph ESE11.3 kmh ESE 8.0 mph12.9 kmh 29.82 in1009.8 mb 0.01 in0.3 mm 0.00 in0.0 mm 0.07 in1.8 mm
09:05 AM 62.8°F17.1°C 59.1°F15.1°C 88% 6.0 mph E9.7 kmh E 10.0 mph16.1 kmh 29.82 in1009.8 mb 0.01 in0.3 mm 0.00 in0.0 mm 0.07 in1.8 mm
09:00 AM 62.5°F16.9°C 59.2°F15.1°C 89% 8.0 mph SE12.9 kmh SE 11.0 mph17.7 kmh 29.82 in1009.8 mb 0.01 in0.3 mm 0.01 in0.3 mm 0.07 in1.8 mm
08:55 AM 62.2°F16.8°C 58.9°F14.9°C 89% 8.0 mph SE12.9 kmh SE 11.0 mph17.7 kmh 29.82 in1009.8 mb 0.00 in0.0 mm 0.00 in0.0 mm 0.06 in1.5 mm
08:50 AM 62.0°F16.7°C 59.0°F15.0°C 90% 7.0 mph ESE11.3 kmh ESE 11.0 mph17.7 kmh 29.82 in1009.8 mb 0.00 in0.0 mm 0.00 in0.0 mm 0.06 in1.5 mm
08:45 AM 62.0°F16.7°C 59.0°F15.0°C 90% 3.0 mph ESE4.8 kmh ESE 8.0 mph12.9 kmh 29.83 in1010.2 mb 0.00 in0.0 mm 0.00 in0.0 mm 0.06 in1.5 mm
08:40 AM 62.0°F16.7°C 59.3°F15.2°C 91% 7.0 mph ESE11.3 kmh ESE 9.0 mph14.5 kmh 29.83 in1010.2 mb 0.00 in0.0 mm 0.00 in0.0 mm 0.06 in1.5 mm
08:35 AM 61.5°F16.4°C 58.8°F14.9°C 91% 7.0 mph E11.3 kmh E 10.0 mph16.1 kmh 29.83 in1010.2 mb 0.00 in0.0 mm 0.00 in0.0 mm 0.06 in1.5 mm
08:30 AM 61.5°F16.4°C 59.1°F15.1°C 92% Calm Calm 1.0 mph1.6 kmh 29.83 in1010.2 mb 0.01 in0.3 mm 0.00 in0.0 mm 0.06 in1.5 mm
08:25 AM 61.4°F16.3°C 59.0°F15.0°C 92% Calm Calm -- 29.83 in1010.2 mb 0.01 in0.3 mm 0.00 in0.0 mm 0.06 in1.5 mm
08:20 AM 61.3°F16.3°C 58.9°F14.9°C 92% Calm Calm 3.0 mph4.8 kmh 29.84 in1010.5 mb 0.01 in0.3 mm 0.00 in0.0 mm 0.06 in1.5 mm
08:15 AM 60.9°F16.1°C 58.5°F14.7°C 92% 2.0 mph E3.2 kmh E 5.0 mph8.0 kmh 29.84 in1010.5 mb 0.01 in0.3 mm 0.00 in0.0 mm 0.06 in1.5 mm
08:10 AM 60.9°F16.1°C 58.5°F14.7°C 92% 4.0 mph NE6.4 kmh NE 5.0 mph8.0 kmh 29.84 in1010.5 mb 0.01 in0.3 mm 0.00 in0.0 mm 0.06 in1.5 mm
08:05 AM 60.7°F15.9°C 58.3°F14.6°C 92% Calm Calm 4.0 mph6.4 kmh 29.84 in1010.5 mb 0.01 in0.3 mm 0.00 in0.0 mm 0.06 in1.5 mm
08:00 AM 60.5°F15.8°C 58.4°F14.7°C 93% 2.0 mph NNE3.2 kmh NNE 4.0 mph6.4 kmh 29.84 in1010.5 mb 0.01 in0.3 mm 0.00 in0.0 mm 0.06 in1.5 mm
07:55 AM 60.3°F15.7°C 57.9°F14.4°C 92% Calm Calm -- 29.84 in1010.5 mb 0.01 in0.3 mm 0.00 in0.0 mm 0.06 in1.5 mm
07:50 AM 60.3°F15.7°C 57.9°F14.4°C 92% Calm Calm -- 29.84 in1010.5 mb 0.01 in0.3 mm 0.00 in0.0 mm 0.06 in1.5 mm
07:45 AM 60.3°F15.7°C 57.9°F14.4°C 92% Calm Calm -- 29.84 in1010.5 mb 0.01 in0.3 mm 0.00 in0.0 mm 0.06 in1.5 mm
07:40 AM 60.1°F15.6°C 57.7°F14.3°C 92% Calm Calm -- 29.85 in1010.8 mb 0.01 in0.3 mm 0.00 in0.0 mm 0.06 in1.5 mm
07:35 AM 60.0°F15.6°C 57.6°F14.2°C 92% Calm Calm -- 29.85 in1010.8 mb 0.01 in0.3 mm 0.12 in3.0 mm 0.06 in1.5 mm
07:30 AM 60.0°F15.6°C 57.6°F14.2°C 92% Calm Calm -- 29.85 in1010.8 mb 0.00 in0.0 mm 0.00 in0.0 mm 0.06 in1.5 mm
07:25 AM 60.3°F15.7°C 57.9°F14.4°C 92% Calm Calm -- 29.84 in1010.5 mb 0.00 in0.0 mm 0.00 in0.0 mm 0.06 in1.5 mm
07:20 AM 60.2°F15.7°C 57.8°F14.3°C 92% Calm Calm -- 29.85 in1010.8 mb 0.00 in0.0 mm 0.00 in0.0 mm 0.06 in1.5 mm
07:15 AM 60.1°F15.6°C 57.7°F14.3°C 92% Calm Calm -- 29.85 in1010.8 mb 0.00 in0.0 mm 0.00 in0.0 mm 0.06 in1.5 mm
07:10 AM 60.0°F15.6°C 57.6°F14.2°C 92% Calm Calm -- 29.85 in1010.8 mb 0.01 in0.3 mm 0.00 in0.0 mm 0.06 in1.5 mm
07:05 AM 60.0°F15.6°C 57.6°F14.2°C 92% Calm Calm -- 29.85 in1010.8 mb 0.01 in0.3 mm 0.00 in0.0 mm 0.06 in1.5 mm
07:00 AM 60.0°F15.6°C 57.6°F14.2°C 92% Calm Calm -- 29.85 in1010.8 mb 0.01 in0.3 mm 0.00 in0.0 mm 0.06 in1.5 mm
06:55 AM 60.0°F15.6°C 57.6°F14.2°C 92% Calm Calm -- 29.85 in1010.8 mb 0.01 in0.3 mm 0.00 in0.0 mm 0.06 in1.5 mm
06:50 AM 59.9°F15.5°C 57.5°F14.2°C 92% Calm Calm -- 29.85 in1010.8 mb 0.01 in0.3 mm 0.00 in0.0 mm 0.06 in1.5 mm
06:45 AM 59.9°F15.5°C 57.2°F14.0°C 91% Calm Calm -- 29.84 in1010.5 mb 0.01 in0.3 mm 0.00 in0.0 mm 0.06 in1.5 mm
06:40 AM 60.2°F15.7°C 57.8°F14.3°C 92% Calm Calm -- 29.84 in1010.5 mb 0.01 in0.3 mm 0.00 in0.0 mm 0.06 in1.5 mm
06:35 AM 60.0°F15.6°C 57.6°F14.2°C 92% Calm Calm -- 29.84 in1010.5 mb 0.01 in0.3 mm 0.00 in0.0 mm 0.06 in1.5 mm
06:30 AM 59.9°F15.5°C 57.5°F14.2°C 92% Calm Calm -- 29.85 in1010.8 mb 0.01 in0.3 mm 0.00 in0.0 mm 0.06 in1.5 mm
06:25 AM 59.8°F15.4°C 57.4°F14.1°C 92% Calm Calm -- 29.85 in1010.8 mb 0.01 in0.3 mm 0.00 in0.0 mm 0.06 in1.5 mm
06:20 AM 59.7°F15.4°C 57.3°F14.1°C 92% Calm Calm -- 29.84 in1010.5 mb 0.01 in0.3 mm 0.00 in0.0 mm 0.06 in1.5 mm
06:15 AM 59.7°F15.4°C 57.3°F14.1°C 92% Calm Calm -- 29.85 in1010.8 mb 0.02 in0.5 mm 0.12 in3.0 mm 0.06 in1.5 mm
06:10 AM 59.6°F15.3°C 57.2°F14.0°C 92% Calm Calm -- 29.85 in1010.8 mb 0.01 in0.3 mm 0.00 in0.0 mm 0.05 in1.3 mm
06:05 AM 59.5°F15.3°C 57.1°F13.9°C 92% Calm Calm -- 29.84 in1010.5 mb 0.01 in0.3 mm 0.00 in0.0 mm 0.05 in1.3 mm
06:00 AM 59.5°F15.3°C 57.1°F13.9°C 92% Calm Calm -- 29.84 in1010.5 mb 0.01 in0.3 mm 0.00 in0.0 mm 0.05 in1.3 mm
05:55 AM 59.5°F15.3°C 57.1°F13.9°C 92% Calm Calm -- 29.84 in1010.5 mb 0.01 in0.3 mm 0.00 in0.0 mm 0.05 in1.3 mm
05:50 AM 59.6°F15.3°C 57.2°F14.0°C 92% Calm Calm -- 29.84 in1010.5 mb 0.01 in0.3 mm 0.00 in0.0 mm 0.05 in1.3 mm
05:45 AM 59.6°F15.3°C 57.2°F14.0°C 92% Calm Calm -- 29.84 in1010.5 mb 0.01 in0.3 mm 0.00 in0.0 mm 0.05 in1.3 mm
05:40 AM 59.7°F15.4°C 57.0°F13.9°C 91% Calm Calm -- 29.84 in1010.5 mb 0.01 in0.3 mm 0.00 in0.0 mm 0.05 in1.3 mm
05:35 AM 59.8°F15.4°C 57.1°F13.9°C 91% Calm Calm -- 29.84 in1010.5 mb 0.01 in0.3 mm 0.00 in0.0 mm 0.05 in1.3 mm
05:30 AM 59.9°F15.5°C 57.2°F14.0°C 91% Calm Calm -- 29.84 in1010.5 mb 0.01 in0.3 mm 0.00 in0.0 mm 0.05 in1.3 mm
05:25 AM 59.9°F15.5°C 57.2°F14.0°C 91% Calm Calm -- 29.84 in1010.5 mb 0.01 in0.3 mm 0.00 in0.0 mm 0.05 in1.3 mm
05:20 AM 60.0°F15.6°C 57.3°F14.1°C 91% Calm Calm -- 29.84 in1010.5 mb 0.01 in0.3 mm 0.12 in3.0 mm 0.05 in1.3 mm
05:15 AM 60.0°F15.6°C 57.3°F14.1°C 91% Calm Calm 1.0 mph1.6 kmh 29.84 in1010.5 mb 0.00 in0.0 mm 0.00 in0.0 mm 0.04 in1.0 mm
05:10 AM 60.0°F15.6°C 57.3°F14.1°C 91% Calm Calm -- 29.84 in1010.5 mb 0.00 in0.0 mm 0.00 in0.0 mm 0.04 in1.0 mm
05:05 AM 60.1°F15.6°C 57.4°F14.1°C 91% Calm Calm -- 29.84 in1010.5 mb 0.00 in0.0 mm 0.00 in0.0 mm 0.04 in1.0 mm
05:00 AM 60.2°F15.7°C 57.5°F14.2°C 91% Calm Calm -- 29.84 in1010.5 mb 0.00 in0.0 mm 0.00 in0.0 mm 0.04 in1.0 mm
04:55 AM 60.2°F15.7°C 57.5°F14.2°C 91% Calm Calm -- 29.84 in1010.5 mb 0.00 in0.0 mm 0.00 in0.0 mm 0.04 in1.0 mm
04:50 AM 60.1°F15.6°C 57.4°F14.1°C 91% Calm Calm -- 29.84 in1010.5 mb 0.00 in0.0 mm 0.00 in0.0 mm 0.04 in1.0 mm
04:45 AM 60.0°F15.6°C 57.3°F14.1°C 91% Calm Calm -- 29.84 in1010.5 mb 0.00 in0.0 mm 0.00 in0.0 mm 0.04 in1.0 mm
04:40 AM 59.9°F15.5°C 57.2°F14.0°C 91% Calm Calm -- 29.84 in1010.5 mb 0.00 in0.0 mm 0.00 in0.0 mm 0.04 in1.0 mm
04:35 AM 59.9°F15.5°C 57.2°F14.0°C 91% Calm Calm -- 29.84 in1010.5 mb 0.00 in0.0 mm 0.00 in0.0 mm 0.04 in1.0 mm
04:30 AM 59.8°F15.4°C 57.1°F13.9°C 91% Calm Calm -- 29.84 in1010.5 mb 0.00 in0.0 mm 0.00 in0.0 mm 0.04 in1.0 mm
04:25 AM 59.8°F15.4°C 57.1°F13.9°C 91% Calm Calm -- 29.84 in1010.5 mb 0.00 in0.0 mm 0.00 in0.0 mm 0.04 in1.0 mm
04:20 AM 59.8°F15.4°C 57.1°F13.9°C 91% Calm Calm -- 29.84 in1010.5 mb 0.00 in0.0 mm 0.00 in0.0 mm 0.04 in1.0 mm
04:15 AM 59.7°F15.4°C 57.0°F13.9°C 91% Calm Calm -- 29.84 in1010.5 mb 0.00 in0.0 mm 0.00 in0.0 mm 0.04 in1.0 mm
04:10 AM 59.6°F15.3°C 56.9°F13.8°C 91% Calm Calm -- 29.84 in1010.5 mb 0.00 in0.0 mm 0.00 in0.0 mm 0.04 in1.0 mm
04:05 AM 59.4°F15.2°C 56.7°F13.7°C 91% Calm Calm -- 29.84 in1010.5 mb 0.00 in0.0 mm 0.00 in0.0 mm 0.04 in1.0 mm
04:00 AM 59.4°F15.2°C 56.7°F13.7°C 91% Calm Calm -- 29.84 in1010.5 mb 0.00 in0.0 mm 0.00 in0.0 mm 0.04 in1.0 mm
03:55 AM 59.2°F15.1°C 56.8°F13.8°C 92% Calm Calm 3.0 mph4.8 kmh 29.84 in1010.5 mb 0.00 in0.0 mm 0.00 in0.0 mm 0.04 in1.0 mm
03:50 AM 59.1°F15.1°C 56.7°F13.7°C 92% Calm Calm -- 29.84 in1010.5 mb 0.00 in0.0 mm 0.00 in0.0 mm 0.04 in1.0 mm
03:45 AM 59.1°F15.1°C 56.7°F13.7°C 92% Calm Calm -- 29.85 in1010.8 mb 0.00 in0.0 mm 0.00 in0.0 mm 0.04 in1.0 mm
03:40 AM 59.0°F15.0°C 56.6°F13.7°C 92% Calm Calm -- 29.85 in1010.8 mb 0.00 in0.0 mm 0.00 in0.0 mm 0.04 in1.0 mm
03:35 AM 58.8°F14.9°C 56.7°F13.7°C 93% Calm Calm -- 29.85 in1010.8 mb 0.00 in0.0 mm 0.00 in0.0 mm 0.04 in1.0 mm
03:30 AM 58.7°F14.8°C 56.6°F13.7°C 93% Calm Calm -- 29.85 in1010.8 mb 0.00 in0.0 mm 0.00 in0.0 mm 0.04 in1.0 mm
03:25 AM 58.7°F14.8°C 56.6°F13.7°C 93% Calm Calm -- 29.85 in1010.8 mb 0.00 in0.0 mm 0.00 in0.0 mm 0.04 in1.0 mm
03:20 AM 58.7°F14.8°C 56.6°F13.7°C 93% Calm Calm -- 29.85 in1010.8 mb 0.00 in0.0 mm 0.00 in0.0 mm 0.04 in1.0 mm
03:15 AM 58.7°F14.8°C 56.6°F13.7°C 93% Calm Calm 3.0 mph4.8 kmh 29.85 in1010.8 mb 0.00 in0.0 mm 0.00 in0.0 mm 0.04 in1.0 mm
03:10 AM 58.7°F14.8°C 56.6°F13.7°C 93% 2.0 mph SE3.2 kmh SE 2.0 mph3.2 kmh 29.85 in1010.8 mb 0.00 in0.0 mm 0.00 in0.0 mm 0.04 in1.0 mm
03:05 AM 58.6°F14.8°C 56.5°F13.6°C 93% 2.0 mph SE3.2 kmh SE 3.0 mph4.8 kmh 29.86 in1011.2 mb 0.00 in0.0 mm 0.00 in0.0 mm 0.04 in1.0 mm
03:00 AM 58.5°F14.7°C 56.4°F13.6°C 93% Calm Calm -- 29.86 in1011.2 mb 0.00 in0.0 mm 0.00 in0.0 mm 0.04 in1.0 mm
02:55 AM 58.5°F14.7°C 56.4°F13.6°C 93% Calm Calm -- 29.86 in1011.2 mb 0.00 in0.0 mm 0.00 in0.0 mm 0.04 in1.0 mm
02:50 AM 58.4°F14.7°C 56.3°F13.5°C 93% Calm Calm -- 29.86 in1011.2 mb 0.01 in0.3 mm 0.00 in0.0 mm 0.04 in1.0 mm
02:45 AM 58.4°F14.7°C 56.3°F13.5°C 93% Calm Calm -- 29.86 in1011.2 mb 0.01 in0.3 mm 0.00 in0.0 mm 0.04 in1.0 mm
02:40 AM 58.3°F14.6°C 55.9°F13.3°C 92% Calm Calm -- 29.87 in1011.5 mb 0.01 in0.3 mm 0.00 in0.0 mm 0.04 in1.0 mm
02:35 AM 58.2°F14.6°C 55.8°F13.2°C 92% Calm Calm -- 29.87 in1011.5 mb 0.01 in0.3 mm 0.00 in0.0 mm 0.04 in1.0 mm
02:30 AM 58.2°F14.6°C 55.8°F13.2°C 92% Calm Calm -- 29.87 in1011.5 mb 0.01 in0.3 mm 0.00 in0.0 mm 0.04 in1.0 mm
02:25 AM 58.1°F14.5°C 55.7°F13.2°C 92% Calm Calm -- 29.87 in1011.5 mb 0.01 in0.3 mm 0.00 in0.0 mm 0.04 in1.0 mm
02:20 AM 58.0°F14.4°C 55.6°F13.1°C 92% Calm Calm -- 29.87 in1011.5 mb 0.01 in0.3 mm 0.00 in0.0 mm 0.04 in1.0 mm
02:15 AM 58.1°F14.5°C 55.7°F13.2°C 92% Calm Calm -- 29.87 in1011.5 mb 0.01 in0.3 mm 0.00 in0.0 mm 0.04 in1.0 mm
02:10 AM 58.0°F14.4°C 55.6°F13.1°C 92% Calm Calm -- 29.87 in1011.5 mb 0.01 in0.3 mm 0.00 in0.0 mm 0.04 in1.0 mm
02:05 AM 58.0°F14.4°C 55.6°F13.1°C 92% Calm Calm -- 29.87 in1011.5 mb 0.02 in0.5 mm 0.00 in0.0 mm 0.04 in1.0 mm
02:00 AM 58.0°F14.4°C 55.6°F13.1°C 92% Calm Calm -- 29.88 in1011.9 mb 0.02 in0.5 mm 0.00 in0.0 mm 0.04 in1.0 mm
01:55 AM 58.0°F14.4°C 55.3°F12.9°C 91% Calm Calm -- 29.88 in1011.9 mb 0.02 in0.5 mm 0.00 in0.0 mm 0.04 in1.0 mm
01:50 AM 58.1°F14.5°C 55.4°F13.0°C 91% Calm Calm -- 29.88 in1011.9 mb 0.02 in0.5 mm 0.00 in0.0 mm 0.03 in0.8 mm
01:45 AM 58.2°F14.6°C 55.5°F13.1°C 91% Calm Calm -- 29.88 in1011.9 mb 0.02 in0.5 mm 0.00 in0.0 mm 0.03 in0.8 mm
01:40 AM 58.2°F14.6°C 55.5°F13.1°C 91% Calm Calm 3.0 mph4.8 kmh 29.88 in1011.9 mb 0.02 in0.5 mm 0.00 in0.0 mm 0.03 in0.8 mm
01:35 AM 58.3°F14.6°C 55.6°F13.1°C 91% Calm Calm 4.0 mph6.4 kmh 29.88 in1011.9 mb 0.02 in0.5 mm 0.00 in0.0 mm 0.03 in0.8 mm
01:30 AM 58.4°F14.7°C 55.7°F13.2°C 91% Calm Calm 4.0 mph6.4 kmh 29.88 in1011.9 mb 0.02 in0.5 mm 0.00 in0.0 mm 0.03 in0.8 mm
01:25 AM 58.4°F14.7°C 55.4°F13.0°C 90% 2.0 mph E3.2 kmh E 5.0 mph8.0 kmh 29.89 in1012.2 mb 0.02 in0.5 mm 0.00 in0.0 mm 0.03 in0.8 mm
01:20 AM 58.5°F14.7°C 55.5°F13.1°C 90% 5.0 mph NE8.0 kmh NE 5.0 mph8.0 kmh 29.88 in1011.9 mb 0.02 in0.5 mm 0.00 in0.0 mm 0.03 in0.8 mm
01:15 AM 58.6°F14.8°C 55.6°F13.1°C 90% Calm Calm -- 29.89 in1012.2 mb 0.02 in0.5 mm 0.00 in0.0 mm 0.03 in0.8 mm
01:10 AM 58.7°F14.8°C 55.7°F13.2°C 90% Calm Calm -- 29.90 in1012.5 mb 0.02 in0.5 mm 0.00 in0.0 mm 0.03 in0.8 mm
01:05 AM 58.6°F14.8°C 55.3°F12.9°C 89% Calm Calm -- 29.90 in1012.5 mb 0.02 in0.5 mm 0.12 in3.0 mm 0.02 in0.5 mm
01:00 AM 58.7°F14.8°C 55.4°F13.0°C 89% Calm Calm -- 29.90 in1012.5 mb 0.01 in0.3 mm 0.00 in0.0 mm 0.02 in0.5 mm
12:55 AM 58.7°F14.8°C 55.4°F13.0°C 89% Calm Calm -- 29.90 in1012.5 mb 0.01 in0.3 mm 0.00 in0.0 mm 0.02 in0.5 mm
12:50 AM 58.7°F14.8°C 55.4°F13.0°C 89% Calm Calm -- 29.90 in1012.5 mb 0.01 in0.3 mm 0.00 in0.0 mm 0.02 in0.5 mm
12:45 AM 58.7°F14.8°C 55.4°F13.0°C 89% Calm Calm -- 29.90 in1012.5 mb 0.01 in0.3 mm 0.00 in0.0 mm 0.02 in0.5 mm
12:40 AM 58.7°F14.8°C 55.4°F13.0°C 89% Calm Calm -- 29.90 in1012.5 mb 0.01 in0.3 mm 0.00 in0.0 mm 0.02 in0.5 mm
12:35 AM 58.6°F14.8°C 55.3°F12.9°C 89% Calm Calm -- 29.90 in1012.5 mb 0.01 in0.3 mm 0.00 in0.0 mm 0.02 in0.5 mm
12:30 AM 58.6°F14.8°C 55.6°F13.1°C 90% Calm Calm -- 29.90 in1012.5 mb 0.01 in0.3 mm 0.00 in0.0 mm 0.02 in0.5 mm
12:25 AM 58.5°F14.7°C 55.5°F13.1°C 90% Calm Calm -- 29.90 in1012.5 mb 0.01 in0.3 mm 0.00 in0.0 mm 0.02 in0.5 mm
12:20 AM 58.4°F14.7°C 55.4°F13.0°C 90% Calm Calm -- 29.91 in1012.9 mb 0.01 in0.3 mm 0.00 in0.0 mm 0.02 in0.5 mm
12:15 AM 58.5°F14.7°C 55.5°F13.1°C 90% Calm Calm -- 29.91 in1012.9 mb 0.02 in0.5 mm 0.12 in3.0 mm 0.02 in0.5 mm
12:10 AM 58.5°F14.7°C 55.5°F13.1°C 90% Calm Calm 1.0 mph1.6 kmh 29.91 in1012.9 mb 0.01 in0.3 mm 0.00 in0.0 mm 0.01 in0.3 mm
12:05 AM 58.6°F14.8°C 55.6°F13.1°C 90% Calm Calm 5.0 mph8.0 kmh 29.91 in1012.9 mb 0.01 in0.3 mm 0.00 in0.0 mm 0.01 in0.3 mm
12:00 AM 58.8°F14.9°C 55.8°F13.2°C 90% 4.0 mph SE6.4 kmh SE 10.0 mph16.1 kmh 29.91 in1012.9 mb 0.01 in0.3 mm 0.00 in0.0 mm 0.01 in0.3 mm